Decoded Metar for EIDW (DUBLIN in IRELAND) (IATA:DUB) | Meteo·Mobile Aviation Weather
aviador You're here:

EIDW Decoded Metar

DUBLIN in IRELAND
Report Time2019-06-19 02:30:00
UTC Time2019-06-19 02:44:40
Flight Rules vfr VFR
Wind270° at 08 kt
W.Decomp.*RWY 28: 8.0 kt HW 0.8 kt LCW
RWY 34: 3.3 kt HW 7.3 kt LCW
Visibility9999 m
Phenomena:N/A
Clouds:Few 020 Hf
Scattered 047 Hf
Broken 080 Hf
Expected CloudBase > 1,200 ft AGL from Temp-Dew spread
Ceiling8,000 ft
Temp11°C (ISA -4)
Dew Point08°C (82% RH)
AAT7.7°C
QNH1009 hPa
Density Alt105 ft
Elevation242 ft
Report Wrong Elevation
Raw Report
METAR EIDW 190230Z 27008KT 9999 FEW020 SCT047 BKN080 11/08 Q1009 NOSIG=

Extra information for EIDW:More info

Metar Taf Metar & Taf Last 4 Metars F.Rules Stats Wind Profile Meteogram Temp Stats Airport Information Weather charts Add Link Nearby VenuesMetar ALERT Operation Metar Decoded Social comments